createdAt,value
2023-02-04T00:00:55.441Z,3.71
2023-02-04T00:03:23.167Z,3.72
2023-02-04T00:05:50.923Z,3.71
2023-02-04T00:08:18.638Z,3.76
2023-02-04T00:10:47.952Z,3.77
2023-02-04T00:13:16.224Z,3.77
2023-02-04T00:15:46.838Z,3.75
2023-02-04T00:18:14.556Z,3.74
2023-02-04T00:20:42.248Z,3.69
2023-02-04T00:23:09.931Z,3.69
2023-02-04T00:25:37.609Z,3.64
2023-02-04T00:28:06.768Z,3.63
2023-02-04T00:30:34.716Z,3.63
2023-02-04T00:33:02.591Z,3.63
2023-02-04T00:35:30.311Z,3.62
2023-02-04T00:37:58.073Z,3.63
2023-02-04T00:40:29.503Z,3.64
2023-02-04T00:42:57.481Z,3.65
2023-02-04T00:45:26.765Z,3.64
2023-02-04T00:47:54.454Z,3.60
2023-02-04T00:50:22.140Z,3.62
2023-02-04T00:52:49.819Z,3.60
2023-02-04T00:55:18.249Z,3.58
2023-02-04T00:57:47.520Z,3.56
2023-02-04T01:00:16.848Z,3.57
2023-02-04T01:02:45.970Z,3.55
2023-02-04T01:05:13.747Z,3.55
2023-02-04T01:07:41.500Z,3.55
2023-02-04T01:10:09.542Z,3.51
2023-02-04T01:12:37.534Z,3.50
2023-02-04T01:15:06.104Z,3.47
2023-02-04T01:17:33.826Z,3.46
2023-02-04T01:20:02.932Z,3.47
2023-02-04T01:22:30.584Z,3.45
2023-02-04T01:25:00.746Z,3.42
2023-02-04T01:27:28.473Z,3.43
2023-02-04T01:29:58.836Z,3.42
2023-02-04T01:32:26.509Z,3.41
2023-02-04T01:34:55.878Z,3.46
2023-02-04T01:37:25.978Z,3.49
2023-02-04T01:39:53.710Z,3.48
2023-02-04T01:42:21.563Z,3.47
2023-02-04T01:44:49.426Z,3.43
2023-02-04T01:47:17.277Z,3.39
2023-02-04T01:49:45.058Z,3.36
2023-02-04T01:52:13.444Z,3.33
2023-02-04T01:54:42.572Z,3.38
2023-02-04T01:57:16.366Z,3.45
2023-02-04T01:59:45.874Z,3.44
2023-02-04T02:02:46.014Z,3.47
2023-02-04T02:05:17.698Z,3.49
2023-02-04T02:07:45.701Z,3.56
2023-02-04T02:10:16.461Z,3.58
2023-02-04T02:12:44.388Z,3.59
2023-02-04T02:15:14.379Z,3.62
2023-02-04T02:17:42.678Z,3.66
2023-02-04T02:20:12.483Z,3.69
2023-02-04T02:22:45.537Z,3.74
2023-02-04T02:25:16.101Z,3.77
2023-02-04T02:27:44.677Z,3.78
2023-02-04T02:30:14.981Z,3.82
2023-02-04T02:32:42.846Z,3.88
2023-02-04T02:35:10.609Z,3.90
2023-02-04T02:37:38.808Z,3.91
2023-02-04T02:40:07.993Z,3.91
2023-02-04T02:42:37.970Z,3.94
2023-02-04T02:45:12.314Z,3.91
2023-02-04T02:47:40.416Z,3.87
2023-02-04T02:50:13.874Z,3.81
2023-02-04T02:52:41.819Z,3.76
2023-02-04T02:55:15.556Z,3.74
2023-02-04T02:57:46.437Z,3.76
2023-02-04T03:00:18.782Z,3.78
2023-02-04T03:02:55.176Z,3.70
2023-02-04T03:05:23.747Z,3.68
2023-02-04T03:07:51.795Z,3.66
2023-02-04T03:10:19.940Z,3.59
2023-02-04T03:12:49.230Z,3.58
2023-02-04T03:15:17.357Z,3.55
2023-02-04T03:17:45.903Z,3.45
2023-02-04T03:20:16.933Z,3.45
2023-02-04T03:22:44.725Z,3.49
2023-02-04T03:25:12.483Z,3.49
2023-02-04T03:27:40.268Z,3.60
2023-02-04T03:30:10.409Z,3.61
2023-02-04T03:32:38.109Z,3.58
2023-02-04T03:35:06.303Z,3.66
2023-02-04T03:37:33.968Z,3.72
2023-02-04T03:40:01.693Z,3.70
2023-02-04T03:42:29.335Z,3.69
2023-02-04T03:44:57.010Z,3.57
2023-02-04T03:47:26.089Z,3.60
2023-02-04T03:49:53.806Z,3.51
2023-02-04T03:52:21.475Z,3.56
2023-02-04T03:54:49.145Z,3.53
2023-02-04T03:57:16.923Z,3.56
2023-02-04T03:59:44.641Z,3.54
2023-02-04T04:02:12.336Z,3.53
2023-02-04T04:04:41.464Z,3.53
2023-02-04T04:07:09.226Z,3.55
2023-02-04T04:09:36.929Z,3.63
2023-02-04T04:12:05.088Z,3.61
2023-02-04T04:14:32.822Z,3.60
2023-02-04T04:17:00.497Z,3.59
2023-02-04T04:19:28.182Z,3.49
2023-02-04T04:21:57.241Z,3.42
2023-02-04T04:24:24.916Z,3.34
2023-02-04T04:26:52.910Z,3.23
2023-02-04T04:29:23.090Z,3.12
2023-02-04T04:31:53.002Z,3.09
2023-02-04T04:34:20.734Z,3.00
2023-02-04T04:36:48.466Z,2.96
2023-02-04T04:39:17.540Z,2.88
2023-02-04T04:41:45.221Z,2.87
2023-02-04T04:44:12.923Z,2.79
2023-02-04T04:46:41.548Z,2.75
2023-02-04T04:49:09.281Z,2.71
2023-02-04T04:51:37.011Z,2.64
2023-02-04T04:54:05.060Z,2.63
2023-02-04T04:56:34.168Z,2.58
2023-02-04T04:59:01.839Z,2.54
2023-02-04T05:01:29.489Z,2.46
2023-02-04T05:03:57.229Z,2.47
2023-02-04T05:06:26.220Z,2.44
2023-02-04T05:08:54.106Z,2.38
2023-02-04T05:11:22.090Z,2.33
2023-02-04T05:13:51.272Z,2.31
2023-02-04T05:16:19.172Z,2.32
2023-02-04T05:18:49.936Z,2.33
2023-02-04T05:21:17.676Z,2.29
2023-02-04T05:23:45.399Z,2.38
2023-02-04T05:26:19.538Z,2.35
2023-02-04T05:28:54.294Z,2.33
2023-02-04T05:31:22.109Z,2.38
2023-02-04T05:33:49.891Z,2.33
2023-02-04T05:36:17.843Z,2.29
2023-02-04T05:38:48.546Z,2.42
2023-02-04T05:41:16.235Z,2.40
2023-02-04T05:43:44.124Z,2.49
2023-02-04T05:46:13.225Z,2.38
2023-02-04T05:48:41.147Z,2.40
2023-02-04T05:51:08.801Z,2.40
2023-02-04T05:53:36.527Z,2.28
2023-02-04T05:56:04.243Z,2.18
2023-02-04T05:58:33.558Z,2.13
2023-02-04T06:01:02.150Z,2.18
2023-02-04T06:03:32.681Z,2.19
2023-02-04T06:06:00.469Z,2.14
2023-02-04T06:08:30.881Z,2.09
2023-02-04T06:10:58.560Z,2.13
2023-02-04T06:13:26.296Z,2.13
2023-02-04T06:15:53.964Z,2.23
2023-02-04T06:18:21.669Z,2.24
2023-02-04T06:20:50.707Z,2.31
2023-02-04T06:23:18.363Z,2.29
2023-02-04T06:25:47.563Z,2.30
2023-02-04T06:28:15.289Z,2.36
2023-02-04T06:30:44.286Z,2.38
2023-02-04T06:33:12.063Z,2.42
2023-02-04T06:35:39.770Z,2.51
2023-02-04T06:38:08.815Z,2.51
2023-02-04T06:40:36.511Z,2.51
2023-02-04T06:43:04.619Z,2.50
2023-02-04T06:45:32.501Z,2.55
2023-02-04T06:48:00.206Z,2.53
2023-02-04T06:50:27.929Z,2.54
2023-02-04T06:52:55.605Z,2.58
2023-02-04T06:55:25.170Z,2.60
2023-02-04T06:57:52.850Z,2.57
2023-02-04T07:00:21.332Z,2.61
2023-02-04T07:02:49.056Z,2.58
2023-02-04T07:05:19.139Z,2.64
2023-02-04T07:07:47.172Z,2.71
2023-02-04T07:10:16.761Z,2.69
2023-02-04T07:12:45.864Z,2.69
2023-02-04T07:15:13.951Z,2.73
2023-02-04T07:17:41.674Z,2.74
2023-02-04T07:20:10.836Z,2.78
2023-02-04T07:22:38.864Z,2.79
2023-02-04T07:25:07.249Z,2.87
2023-02-04T07:27:35.020Z,2.91
2023-02-04T07:30:04.339Z,2.92
2023-02-04T07:32:33.537Z,2.91
2023-02-04T07:35:01.606Z,2.96
2023-02-04T07:37:29.368Z,2.93
2023-02-04T07:39:57.033Z,3.01
2023-02-04T07:42:24.806Z,2.96
2023-02-04T07:44:52.544Z,3.00
2023-02-04T07:47:21.681Z,2.95
2023-02-04T07:49:49.360Z,2.99
2023-02-04T07:52:18.751Z,2.97
2023-02-04T07:54:46.471Z,2.98
2023-02-04T07:57:14.192Z,3.01
2023-02-04T07:59:44.670Z,3.04
2023-02-04T08:02:12.612Z,3.17
2023-02-04T08:04:41.672Z,3.24
2023-02-04T08:07:09.396Z,3.30
2023-02-04T08:09:37.040Z,3.33
2023-02-04T08:12:05.116Z,3.38
2023-02-04T08:14:32.983Z,3.48
2023-02-04T08:17:00.700Z,3.52
2023-02-04T08:19:28.387Z,3.56
2023-02-04T08:21:57.456Z,3.66
2023-02-04T08:24:25.265Z,3.66
2023-02-04T08:26:52.987Z,3.71
2023-02-04T08:29:21.064Z,3.74
2023-02-04T08:31:48.822Z,3.80
2023-02-04T08:34:16.527Z,3.83
2023-02-04T08:36:45.048Z,3.97
2023-02-04T08:39:14.151Z,3.99
2023-02-04T08:41:41.841Z,4.07
2023-02-04T08:44:09.515Z,4.13
2023-02-04T08:46:37.356Z,4.23
2023-02-04T08:49:05.077Z,4.31
2023-02-04T08:51:32.891Z,4.41
2023-02-04T08:54:00.620Z,4.46
2023-02-04T08:56:31.433Z,4.55
2023-02-04T08:58:59.181Z,4.45
2023-02-04T09:01:26.848Z,4.34
2023-02-04T09:03:54.573Z,4.28
2023-02-04T09:06:22.764Z,4.29
2023-02-04T09:08:50.532Z,4.51
2023-02-04T09:11:18.316Z,4.92
2023-02-04T09:13:47.380Z,4.77
2023-02-04T09:16:15.221Z,5.17
2023-02-04T09:18:43.013Z,5.64
2023-02-04T09:21:12.491Z,5.69
2023-02-04T09:23:40.285Z,5.68
2023-02-04T09:26:08.032Z,5.41
2023-02-04T09:28:35.740Z,5.21
2023-02-04T09:31:06.329Z,5.16
2023-02-04T09:33:34.753Z,5.10
2023-02-04T09:36:02.498Z,5.25
2023-02-04T09:38:30.291Z,5.13
2023-02-04T09:41:02.599Z,5.03
2023-02-04T09:43:36.997Z,4.95
2023-02-04T09:46:06.912Z,4.86
2023-02-04T09:48:34.819Z,4.96
2023-02-04T09:51:05.956Z,5.11
2023-02-04T09:53:35.772Z,5.38
2023-02-04T09:56:03.812Z,5.36
2023-02-04T09:58:35.318Z,5.52
2023-02-04T10:01:12.954Z,5.40
2023-02-04T10:03:46.483Z,5.54
2023-02-04T10:06:15.773Z,5.69
2023-02-04T10:08:44.859Z,5.81
2023-02-04T10:11:13.175Z,5.76
2023-02-04T10:13:44.689Z,5.68
2023-02-04T10:16:17.973Z,5.62
2023-02-04T10:18:46.343Z,5.79
2023-02-04T10:21:17.253Z,5.85
2023-02-04T10:23:48.090Z,6.10
2023-02-04T10:26:16.884Z,6.26
2023-02-04T10:28:45.999Z,6.18
2023-02-04T10:31:31.433Z,6.00
2023-02-04T10:34:07.825Z,5.78
2023-02-04T10:36:35.608Z,5.85
2023-02-04T10:39:04.755Z,5.90
2023-02-04T10:41:33.433Z,5.92
2023-02-04T10:44:06.283Z,5.79
2023-02-04T10:46:35.353Z,5.62
2023-02-04T10:49:05.350Z,5.44
2023-02-04T10:51:34.259Z,5.44
2023-02-04T10:54:19.332Z,5.28
2023-02-04T10:56:47.108Z,5.42
2023-02-04T10:59:26.796Z,5.45
2023-02-04T11:01:57.100Z,5.34
2023-02-04T11:04:25.979Z,5.50
2023-02-04T11:06:54.313Z,5.72
2023-02-04T11:09:22.464Z,5.82
2023-02-04T11:11:51.864Z,6.22
2023-02-04T11:14:28.142Z,6.81
2023-02-04T11:17:00.881Z,6.75
2023-02-04T11:19:38.194Z,6.36
2023-02-04T11:22:09.662Z,6.09
2023-02-04T11:24:37.393Z,5.63
2023-02-04T11:27:10.030Z,5.36
2023-02-04T11:29:39.222Z,5.28
2023-02-04T11:32:27.816Z,5.25
2023-02-04T11:34:57.384Z,4.83
2023-02-04T11:37:38.454Z,5.05
2023-02-04T11:40:24.452Z,5.41
2023-02-04T11:42:57.216Z,5.77
2023-02-04T11:45:28.439Z,6.20
2023-02-04T11:48:00.967Z,6.47
2023-02-04T11:50:31.570Z,7.06
2023-02-04T11:53:01.939Z,7.87
2023-02-04T11:55:31.762Z,7.50
2023-02-04T11:57:59.859Z,7.30
2023-02-04T12:00:30.796Z,6.99
2023-02-04T12:03:06.170Z,6.62
2023-02-04T12:05:38.239Z,6.24
2023-02-04T12:08:13.771Z,6.08
2023-02-04T12:10:48.886Z,5.83
2023-02-04T12:13:19.058Z,5.92
2023-02-04T12:15:56.575Z,5.86
2023-02-04T12:18:27.763Z,6.01
2023-02-04T12:20:55.972Z,6.19
2023-02-04T12:23:23.895Z,6.48
2023-02-04T12:25:52.004Z,6.50
2023-02-04T12:28:23.183Z,6.68
2023-02-04T12:30:51.319Z,6.55
2023-02-04T12:33:19.189Z,6.09
2023-02-04T12:35:48.469Z,5.77
2023-02-04T12:38:16.536Z,5.46
2023-02-04T12:40:44.624Z,5.47
2023-02-04T12:43:12.415Z,5.69
2023-02-04T12:45:45.553Z,6.01
2023-02-04T12:48:13.859Z,6.00
2023-02-04T12:50:41.712Z,6.33
2023-02-04T12:53:10.801Z,6.22
2023-02-04T12:55:38.600Z,5.98
2023-02-04T12:58:06.473Z,5.85
2023-02-04T13:00:34.485Z,5.69
2023-02-04T13:03:02.576Z,5.42
2023-02-04T13:05:30.688Z,5.33
2023-02-04T13:07:58.689Z,5.48
2023-02-04T13:10:27.804Z,5.44
2023-02-04T13:12:55.534Z,5.51
2023-02-04T13:15:23.256Z,5.42
2023-02-04T13:17:51.030Z,5.57
2023-02-04T13:20:19.495Z,5.62
2023-02-04T13:22:47.253Z,5.66
2023-02-04T13:25:15.044Z,5.92
2023-02-04T13:27:44.234Z,5.79
2023-02-04T13:30:14.863Z,5.73
2023-02-04T13:32:43.515Z,5.37
2023-02-04T13:35:11.385Z,5.37
2023-02-04T13:37:39.190Z,5.32
2023-02-04T13:40:09.436Z,5.21
2023-02-04T13:42:37.201Z,5.29
2023-02-04T13:45:10.514Z,5.19
2023-02-04T13:47:38.185Z,4.90
2023-02-04T13:50:06.750Z,4.71
2023-02-04T13:52:34.677Z,4.64
2023-02-04T13:55:02.569Z,4.56
2023-02-04T13:57:30.954Z,4.34
2023-02-04T13:59:58.700Z,4.32
2023-02-04T14:02:27.915Z,4.22
2023-02-04T14:04:57.639Z,4.20
2023-02-04T14:07:25.425Z,4.19
2023-02-04T14:09:53.111Z,4.08
2023-02-04T14:12:20.764Z,3.98
2023-02-04T14:14:48.511Z,4.00
2023-02-04T14:17:16.242Z,3.95
2023-02-04T14:19:45.309Z,3.86
2023-02-04T14:22:13.700Z,3.91
2023-02-04T14:24:42.752Z,4.43
2023-02-04T14:27:11.532Z,4.57
2023-02-04T14:29:39.433Z,4.63
2023-02-04T14:32:07.138Z,4.68
2023-02-04T14:34:35.001Z,4.46
2023-02-04T14:37:04.123Z,4.24
2023-02-04T14:39:31.846Z,3.96
2023-02-04T14:41:59.558Z,4.14
2023-02-04T14:44:27.273Z,4.14
2023-02-04T14:46:54.999Z,4.17
2023-02-04T14:49:22.718Z,4.12
2023-02-04T14:51:50.402Z,4.04
2023-02-04T14:54:19.628Z,4.01
2023-02-04T14:56:47.881Z,3.91
2023-02-04T14:59:15.672Z,3.87
2023-02-04T15:01:45.242Z,3.84
2023-02-04T15:04:13.080Z,3.78
2023-02-04T15:06:40.790Z,3.81
2023-02-04T15:09:08.800Z,3.81
2023-02-04T15:11:37.872Z,3.67
2023-02-04T15:14:06.131Z,3.80
2023-02-04T15:16:33.923Z,3.80
2023-02-04T15:19:01.691Z,3.62
2023-02-04T15:21:29.486Z,3.73
2023-02-04T15:23:57.417Z,3.70
2023-02-04T15:26:25.814Z,3.63
2023-02-04T15:28:56.082Z,3.61
2023-02-04T15:31:27.302Z,3.54
2023-02-04T15:33:55.438Z,3.51
2023-02-04T15:36:23.433Z,3.48
2023-02-04T15:38:51.183Z,3.53
2023-02-04T15:41:18.989Z,3.50
2023-02-04T15:43:48.747Z,3.46
2023-02-04T15:46:18.058Z,3.42
2023-02-04T15:48:45.966Z,3.46
2023-02-04T15:51:13.799Z,3.43
2023-02-04T15:53:42.048Z,3.33
2023-02-04T15:56:10.742Z,3.30
2023-02-04T15:58:39.847Z,3.28
2023-02-04T16:01:07.750Z,3.17
2023-02-04T16:03:36.984Z,3.10
2023-02-04T16:06:05.287Z,3.09
2023-02-04T16:08:33.060Z,3.07
2023-02-04T16:11:00.774Z,3.02
2023-02-04T16:13:28.485Z,2.97
2023-02-04T16:15:56.299Z,2.94
2023-02-04T16:18:25.699Z,2.93
2023-02-04T16:20:54.980Z,2.84
2023-02-04T16:23:22.898Z,2.80
2023-02-04T16:25:50.617Z,2.74
2023-02-04T16:28:18.595Z,2.71
2023-02-04T16:30:46.448Z,2.67
2023-02-04T16:33:15.073Z,2.68
2023-02-04T16:36:01.556Z,2.57
2023-02-04T16:38:30.196Z,2.60
2023-02-04T16:41:00.632Z,2.57
2023-02-04T16:43:28.581Z,2.56
2023-02-04T16:45:56.322Z,2.55
2023-02-04T16:48:24.638Z,2.54
2023-02-04T16:50:52.553Z,2.54
2023-02-04T16:53:24.638Z,2.60
2023-02-04T16:55:52.359Z,2.62
2023-02-04T16:58:20.106Z,2.65
2023-02-04T17:00:48.554Z,2.58
2023-02-04T17:03:16.314Z,2.55
2023-02-04T17:05:44.285Z,2.58
2023-02-04T17:08:13.705Z,2.51
2023-02-04T17:11:00.388Z,2.48
2023-02-04T17:13:28.232Z,2.42
2023-02-04T17:16:00.480Z,2.42
2023-02-04T17:18:29.845Z,2.40
2023-02-04T17:20:57.810Z,2.38
2023-02-04T17:23:26.184Z,2.33
2023-02-04T17:25:55.270Z,2.35
2023-02-04T17:28:24.201Z,2.35
2023-02-04T17:30:52.051Z,2.38
2023-02-04T17:33:19.859Z,2.36
2023-02-04T17:35:47.571Z,2.31
2023-02-04T17:38:15.330Z,2.27
2023-02-04T17:40:43.550Z,2.20
2023-02-04T17:43:13.081Z,2.22
2023-02-04T17:45:40.829Z,2.13
2023-02-04T17:48:08.599Z,2.11
2023-02-04T17:53:11.164Z,2.02
2023-02-04T17:55:40.093Z,1.98
2023-02-04T17:58:15.710Z,1.91
2023-02-04T18:00:46.254Z,1.97
2023-02-04T18:03:16.067Z,1.92
2023-02-04T18:05:47.045Z,1.79
2023-02-04T18:08:19.906Z,1.71
2023-02-04T18:10:49.504Z,1.64
2023-02-04T18:13:21.665Z,1.57
2023-02-04T18:15:52.986Z,1.50
2023-02-04T18:18:23.827Z,1.46
2023-02-04T18:21:03.380Z,1.38
2023-02-04T18:23:33.840Z,1.33
2023-02-04T18:26:08.605Z,1.33
2023-02-04T18:28:41.996Z,1.33
2023-02-04T18:31:29.496Z,1.28
2023-02-04T18:33:58.159Z,1.28
2023-02-04T18:36:27.973Z,1.23
2023-02-04T18:38:56.218Z,1.24
2023-02-04T18:41:33.994Z,1.28
2023-02-04T18:44:21.673Z,1.20
2023-02-04T18:46:49.471Z,1.09
2023-02-04T18:49:27.282Z,1.02
2023-02-04T18:51:55.636Z,0.92
2023-02-04T18:54:37.416Z,0.87
2023-02-04T18:57:36.602Z,0.81
2023-02-04T19:00:28.017Z,0.75
2023-02-04T19:02:58.414Z,0.77
2023-02-04T19:05:30.011Z,0.75
2023-02-04T19:08:21.806Z,0.69
2023-02-04T19:10:50.477Z,0.65
2023-02-04T19:13:23.663Z,0.65
2023-02-04T19:15:59.686Z,0.55
2023-02-04T19:18:29.590Z,0.48
2023-02-04T19:21:02.409Z,0.39
2023-02-04T19:23:37.504Z,0.30
2023-02-04T19:26:25.951Z,0.20
2023-02-04T19:28:54.372Z,0.08
2023-02-04T19:31:23.838Z,-0.05
2023-02-04T19:33:53.397Z,-0.19
2023-02-04T19:36:39.425Z,-0.33
2023-02-04T19:39:25.435Z,-0.45
2023-02-04T19:41:55.437Z,-0.52
2023-02-04T19:44:35.242Z,-0.65
2023-02-04T19:47:23.421Z,-0.81
2023-02-04T19:49:51.576Z,-0.98
2023-02-04T19:52:30.023Z,-1.11
2023-02-04T19:55:19.391Z,-1.16
2023-02-04T19:57:49.639Z,-1.15
2023-02-04T20:00:37.288Z,-1.08
2023-02-04T20:03:22.106Z,-1.09
2023-02-04T20:05:49.904Z,-1.11
2023-02-04T20:08:47.038Z,-1.08
2023-02-04T20:11:51.549Z,-1.12
2023-02-04T20:14:47.234Z,-1.09
2023-02-04T20:17:39.120Z,-1.06
2023-02-04T20:20:23.768Z,-1.00
2023-02-04T20:22:53.335Z,-0.99
2023-02-04T20:25:43.717Z,-0.97
2023-02-04T20:28:49.992Z,-1.07
2023-02-04T20:31:26.817Z,-1.20
2023-02-04T20:33:56.672Z,-1.34
2023-02-04T20:36:41.018Z,-1.53
2023-02-04T20:39:29.293Z,-1.52
2023-02-04T20:42:17.447Z,-1.47
2023-02-04T20:44:46.958Z,-1.55
2023-02-04T20:47:18.659Z,-1.57
2023-02-04T20:49:56.260Z,-1.65
2023-02-04T20:53:07.481Z,-1.62
2023-02-04T20:55:35.887Z,-1.61
2023-02-04T20:58:16.749Z,-1.58
2023-02-04T21:00:47.814Z,-1.54
2023-02-04T21:03:36.001Z,-1.54
2023-02-04T21:06:15.319Z,-1.55
2023-02-04T21:08:46.102Z,-1.49
2023-02-04T21:11:13.894Z,-1.42
2023-02-04T21:13:41.694Z,-1.38
2023-02-04T21:16:09.842Z,-1.33
2023-02-04T21:18:37.776Z,-1.27
2023-02-04T21:21:07.896Z,-1.22
2023-02-04T21:23:35.803Z,-1.26
2023-02-04T21:26:05.507Z,-1.27
2023-02-04T21:28:33.761Z,-1.22
2023-02-04T21:31:01.873Z,-1.25
2023-02-04T21:33:29.728Z,-1.25
2023-02-04T21:35:57.646Z,-1.26
2023-02-04T21:38:25.383Z,-1.20
2023-02-04T21:40:53.321Z,-1.20
2023-02-04T21:43:22.547Z,-1.11
2023-02-04T21:45:50.298Z,-1.09
2023-02-04T21:48:18.005Z,-1.01
2023-02-04T21:50:45.833Z,-0.94
2023-02-04T21:53:13.566Z,-0.90
2023-02-04T21:55:41.316Z,-0.89
2023-02-04T21:58:09.075Z,-0.88
2023-02-04T22:00:41.260Z,-0.88
2023-02-04T22:03:13.005Z,-0.89
2023-02-04T22:05:40.719Z,-0.89
2023-02-04T22:08:08.577Z,-0.88
2023-02-04T22:10:36.669Z,-0.86
2023-02-04T22:13:25.859Z,-0.88
2023-02-04T22:15:54.976Z,-0.93
2023-02-04T22:18:22.708Z,-0.92
2023-02-04T22:20:50.452Z,-0.85
2023-02-04T22:23:18.254Z,-0.87
2023-02-04T22:25:45.995Z,-0.84
2023-02-04T22:28:13.776Z,-0.88
2023-02-04T22:30:41.575Z,-0.85
2023-02-04T22:33:11.732Z,-0.85
2023-02-04T22:35:39.467Z,-0.85
2023-02-04T22:38:07.184Z,-0.86
2023-02-04T22:40:34.987Z,-0.84
2023-02-04T22:43:04.606Z,-0.83
2023-02-04T22:45:40.406Z,-0.87
2023-02-04T22:48:16.853Z,-0.94
2023-02-04T22:50:44.645Z,-1.06
2023-02-04T22:53:12.378Z,-1.21
2023-02-04T23:01:25.631Z,-1.38
2023-02-04T23:03:53.381Z,-1.34
2023-02-04T23:06:22.497Z,-1.34
2023-02-04T23:08:51.305Z,-1.36
2023-02-04T23:11:19.236Z,-1.39
2023-02-04T23:13:47.095Z,-1.39
2023-02-04T23:16:14.896Z,-1.42
2023-02-04T23:18:43.966Z,-1.46
2023-02-04T23:21:12.011Z,-1.47
2023-02-04T23:23:40.706Z,-1.48
2023-02-04T23:26:08.958Z,-1.47
2023-02-04T23:28:36.679Z,-1.47
2023-02-04T23:31:07.282Z,-1.50
2023-02-04T23:33:36.759Z,-1.54
2023-02-04T23:36:06.915Z,-1.59
2023-02-04T23:38:34.616Z,-1.61
2023-02-04T23:41:02.409Z,-1.60
2023-02-04T23:43:30.383Z,-1.64
2023-02-04T23:45:59.934Z,-1.71
2023-02-04T23:48:27.633Z,-1.80
2023-02-04T23:50:58.026Z,-1.87
2023-02-04T23:53:27.198Z,-1.93
2023-02-04T23:55:54.876Z,-2.00
2023-02-04T23:58:22.582Z,-2.03
